createdAt,value
2019-01-19T00:01:25.588Z,15.43
2019-01-19T00:04:38.418Z,12.20
2019-01-19T00:07:46.797Z,13.93
2019-01-19T00:10:51.994Z,13.57
2019-01-19T00:14:09.355Z,12.30
2019-01-19T00:17:32.962Z,11.80
2019-01-19T00:20:37.664Z,12.97
2019-01-19T00:23:33.529Z,15.73
2019-01-19T00:27:07.217Z,14.07
2019-01-19T00:30:20.948Z,14.97
2019-01-19T00:33:23.926Z,14.50
2019-01-19T00:36:18.870Z,13.17
2019-01-19T00:39:31.040Z,13.07
2019-01-19T00:42:13.322Z,13.73
2019-01-19T00:45:07.955Z,13.07
2019-01-19T00:48:25.608Z,12.60
2019-01-19T00:51:33.751Z,13.77
2019-01-19T00:54:18.684Z,12.47
2019-01-19T00:57:08.832Z,16.37
2019-01-19T00:59:41.259Z,13.13
2019-01-19T01:02:49.343Z,12.87
2019-01-19T01:05:48.515Z,13.00
2019-01-19T01:08:35.092Z,16.10
2019-01-19T01:11:31.801Z,16.40
2019-01-19T01:14:46.422Z,15.73
2019-01-19T01:17:26.967Z,16.10
2019-01-19T01:20:37.732Z,15.10
2019-01-19T01:23:30.825Z,15.67
2019-01-19T01:26:54.141Z,13.67
2019-01-19T01:29:59.680Z,15.00
2019-01-19T01:33:11.707Z,15.00
2019-01-19T01:36:08.740Z,12.90
2019-01-19T01:39:16.693Z,13.67
2019-01-19T01:42:37.934Z,13.53
2019-01-19T01:45:49.416Z,14.37
2019-01-19T01:48:36.044Z,14.47
2019-01-19T01:51:45.188Z,13.27
2019-01-19T01:54:36.022Z,12.37
2019-01-19T01:57:10.476Z,11.53
2019-01-19T01:59:56.209Z,11.60
2019-01-19T02:02:55.972Z,11.83
2019-01-19T02:05:58.094Z,13.43
2019-01-19T02:09:11.775Z,13.27
2019-01-19T02:12:54.667Z,14.47
2019-01-19T02:15:57.955Z,11.20
2019-01-19T02:18:52.930Z,12.63
2019-01-19T02:21:48.330Z,12.03
2019-01-19T02:24:49.124Z,13.17
2019-01-19T02:28:07.305Z,13.07
2019-01-19T02:30:53.885Z,11.30
2019-01-19T02:34:00.355Z,12.40
2019-01-19T02:37:14.785Z,13.13
2019-01-19T02:40:04.240Z,13.87
2019-01-19T02:42:57.514Z,12.53
2019-01-19T02:46:16.316Z,12.00
2019-01-19T02:49:29.153Z,14.60
2019-01-19T02:52:38.621Z,11.57
2019-01-19T02:55:44.342Z,12.13
2019-01-19T02:58:57.122Z,11.87
2019-01-19T03:02:01.814Z,14.03
2019-01-19T03:04:36.455Z,12.50
2019-01-19T03:07:26.964Z,18.93
2019-01-19T03:10:11.026Z,15.67
2019-01-19T03:13:29.390Z,15.40
2019-01-19T03:16:40.940Z,13.87
2019-01-19T03:19:58.777Z,15.03
2019-01-19T03:22:56.720Z,14.90
2019-01-19T03:25:38.823Z,12.23
2019-01-19T03:28:22.914Z,15.70
2019-01-19T03:31:46.901Z,12.63
2019-01-19T03:34:32.933Z,15.97
2019-01-19T03:37:48.213Z,12.37
2019-01-19T03:41:02.137Z,14.57
2019-01-19T03:44:05.605Z,15.53
2019-01-19T03:47:21.016Z,14.53
2019-01-19T03:50:07.383Z,13.60
2019-01-19T03:53:05.921Z,14.63
2019-01-19T03:56:20.411Z,14.33
2019-01-19T03:58:58.296Z,13.63
2019-01-19T04:02:06.546Z,17.27
2019-01-19T04:05:20.456Z,13.97
2019-01-19T04:08:15.294Z,13.70
2019-01-19T04:11:39.079Z,15.20
2019-01-19T04:14:54.860Z,13.33
2019-01-19T04:17:59.053Z,18.50
2019-01-19T04:21:02.471Z,14.17
2019-01-19T04:23:30.327Z,14.00
2019-01-19T04:26:06.039Z,13.43
2019-01-19T04:28:33.903Z,13.60
2019-01-19T04:31:01.736Z,13.77
2019-01-19T04:33:30.970Z,12.90
2019-01-19T04:35:58.713Z,16.47
2019-01-19T04:38:26.302Z,13.97
2019-01-19T04:40:53.982Z,13.10
2019-01-19T04:43:21.685Z,13.33
2019-01-19T04:45:49.458Z,13.03
2019-01-19T04:48:19.260Z,15.70
2019-01-19T04:50:47.032Z,15.67
2019-01-19T04:53:14.704Z,13.17
2019-01-19T04:55:42.401Z,14.07
2019-01-19T04:58:10.089Z,14.67
2019-01-19T05:00:37.896Z,14.13
2019-01-19T05:03:05.652Z,14.30
2019-01-19T05:05:33.337Z,13.83
2019-01-19T05:08:01.119Z,13.33
2019-01-19T05:10:28.830Z,11.93
2019-01-19T05:12:56.518Z,11.60
2019-01-19T05:15:24.191Z,13.97
2019-01-19T05:17:52.076Z,12.93
2019-01-19T05:20:19.799Z,12.90
2019-01-19T05:22:47.447Z,11.17
2019-01-19T05:25:15.159Z,11.70
2019-01-19T05:27:42.887Z,10.50
2019-01-19T05:30:18.196Z,10.33
2019-01-19T05:32:46.092Z,12.77
2019-01-19T05:35:14.095Z,12.13
2019-01-19T05:37:41.695Z,12.07
2019-01-19T05:40:10.205Z,11.30
2019-01-19T05:42:37.975Z,14.00
2019-01-19T05:45:06.800Z,13.80
2019-01-19T05:47:34.426Z,13.80
2019-01-19T05:50:02.051Z,12.60
2019-01-19T05:52:29.668Z,10.50
2019-01-19T05:54:57.249Z,11.67
2019-01-19T05:57:24.899Z,11.90
2019-01-19T05:59:52.540Z,12.77
2019-01-19T06:02:22.046Z,10.47
2019-01-19T06:04:49.730Z,14.80
2019-01-19T06:07:17.325Z,9.30
2019-01-19T06:09:45.043Z,12.20
2019-01-19T06:12:12.665Z,11.83
2019-01-19T06:14:40.303Z,11.13
2019-01-19T06:17:07.899Z,9.90
2019-01-19T06:19:35.785Z,9.10
2019-01-19T06:22:03.706Z,13.97
2019-01-19T06:24:31.359Z,9.83
2019-01-19T06:26:59.096Z,10.57
2019-01-19T06:29:26.801Z,10.40
2019-01-19T06:31:54.389Z,14.30
2019-01-19T06:34:22.083Z,9.00
2019-01-19T06:36:54.923Z,10.90
2019-01-19T06:39:19.275Z,10.87
2019-01-19T06:41:46.997Z,10.10
2019-01-19T06:44:14.609Z,9.17
2019-01-19T06:46:44.074Z,11.60
2019-01-19T06:49:11.704Z,13.43
2019-01-19T06:51:39.368Z,11.20
2019-01-19T06:54:07.245Z,11.90
2019-01-19T06:56:34.841Z,11.90
2019-01-19T06:59:04.809Z,11.37
2019-01-19T07:01:32.505Z,14.40
2019-01-19T07:04:00.215Z,12.87
2019-01-19T07:06:27.752Z,10.10
2019-01-19T07:08:55.430Z,9.40
2019-01-19T07:11:23.188Z,9.90
2019-01-19T07:13:50.945Z,13.70
2019-01-19T07:16:18.563Z,15.83
2019-01-19T07:18:46.269Z,13.00
2019-01-19T07:21:13.882Z,13.10
2019-01-19T07:23:41.606Z,15.10
2019-01-19T07:26:09.248Z,13.43
2019-01-19T07:28:36.880Z,14.50
2019-01-19T07:31:04.474Z,13.80
2019-01-19T07:33:33.988Z,12.80
2019-01-19T07:36:01.740Z,12.83
2019-01-19T07:38:29.551Z,12.47
2019-01-19T07:40:57.345Z,11.10
2019-01-19T07:43:25.511Z,12.43
2019-01-19T07:45:53.290Z,13.20
2019-01-19T07:48:21.103Z,10.37
2019-01-19T07:50:48.812Z,10.80
2019-01-19T07:53:16.457Z,13.87
2019-01-19T07:55:44.018Z,13.23
2019-01-19T07:58:11.693Z,12.03
2019-01-19T08:00:39.531Z,11.87
2019-01-19T08:03:07.534Z,14.20
2019-01-19T08:05:35.541Z,13.40
2019-01-19T08:08:03.564Z,13.40
2019-01-19T08:10:31.368Z,10.73
2019-01-19T08:12:59.313Z,11.43
2019-01-19T08:15:27.619Z,15.10
2019-01-19T08:17:57.676Z,12.07
2019-01-19T08:20:25.546Z,14.50
2019-01-19T08:22:53.528Z,61.70
2019-01-19T08:25:21.496Z,72.50
2019-01-19T08:27:49.761Z,50.77
2019-01-19T08:30:20.108Z,28.50
2019-01-19T08:32:49.831Z,46.77
2019-01-19T08:35:18.239Z,83.00
2019-01-19T08:37:46.619Z,72.90
2019-01-19T08:40:16.893Z,19.50
2019-01-19T08:42:49.742Z,15.67
2019-01-19T08:45:18.288Z,17.47
2019-01-19T08:47:46.488Z,17.80
2019-01-19T08:50:14.678Z,14.10
2019-01-19T08:52:43.666Z,15.40
2019-01-19T08:55:11.606Z,19.83
2019-01-19T08:57:40.507Z,17.63
2019-01-19T09:00:11.986Z,15.30
2019-01-19T09:02:40.055Z,14.93
2019-01-19T09:05:08.712Z,13.33
2019-01-19T09:07:36.765Z,13.40
2019-01-19T09:10:06.238Z,13.23
2019-01-19T09:12:34.169Z,14.47
2019-01-19T09:15:02.015Z,13.87
2019-01-19T09:17:30.037Z,13.47
2019-01-19T09:19:58.126Z,16.93
2019-01-19T09:22:26.040Z,15.90
2019-01-19T09:24:54.221Z,14.80
2019-01-19T09:27:22.089Z,12.80
2019-01-19T09:29:50.302Z,14.87
2019-01-19T09:32:18.428Z,14.67
2019-01-19T09:34:46.819Z,18.80
2019-01-19T09:37:14.668Z,13.70
2019-01-19T09:39:42.647Z,16.37
2019-01-19T09:42:10.477Z,10.90
2019-01-19T09:44:38.586Z,17.13
2019-01-19T09:47:06.574Z,13.50
2019-01-19T09:49:34.899Z,13.90
2019-01-19T09:52:02.690Z,18.80
2019-01-19T09:54:35.383Z,15.57
2019-01-19T09:57:03.366Z,15.23
2019-01-19T09:59:31.548Z,17.63
2019-01-19T10:02:02.275Z,14.83
2019-01-19T10:04:30.401Z,14.53
2019-01-19T10:07:00.943Z,14.97
2019-01-19T10:09:31.613Z,15.07
2019-01-19T10:11:59.635Z,13.50
2019-01-19T10:14:28.938Z,13.43
2019-01-19T10:16:57.068Z,10.83
2019-01-19T10:19:27.493Z,15.83
2019-01-19T10:21:58.564Z,13.73
2019-01-19T10:24:26.519Z,11.23
2019-01-19T10:26:54.688Z,11.70
2019-01-19T10:29:23.003Z,12.50
2019-01-19T10:31:50.926Z,11.93
2019-01-19T10:34:18.816Z,17.23
2019-01-19T10:36:46.597Z,12.70
2019-01-19T10:39:14.469Z,11.03
2019-01-19T10:41:42.666Z,14.60
2019-01-19T10:44:10.603Z,10.93
2019-01-19T10:46:38.646Z,9.63
2019-01-19T10:49:07.627Z,9.57
2019-01-19T10:51:35.607Z,9.50
2019-01-19T10:54:03.637Z,9.43
2019-01-19T10:56:31.532Z,8.97
2019-01-19T10:58:59.776Z,10.23
2019-01-19T11:01:27.727Z,9.80
2019-01-19T11:03:56.176Z,8.23
2019-01-19T11:06:24.359Z,14.50
2019-01-19T11:08:52.430Z,8.70
2019-01-19T11:11:20.309Z,7.70
2019-01-19T11:13:48.357Z,9.57
2019-01-19T11:16:16.680Z,9.17
2019-01-19T11:18:44.730Z,9.30
2019-01-19T11:21:12.707Z,11.80
2019-01-19T11:23:40.647Z,10.13
2019-01-19T11:26:08.617Z,12.83
2019-01-19T11:28:39.687Z,14.77
2019-01-19T11:31:07.688Z,11.07
2019-01-19T11:33:35.782Z,12.37
2019-01-19T11:36:04.079Z,10.13
2019-01-19T11:38:32.428Z,6.37
2019-01-19T11:41:01.976Z,9.10
2019-01-19T11:43:30.123Z,8.37
2019-01-19T11:45:58.149Z,6.53
2019-01-19T11:48:28.439Z,6.47
2019-01-19T11:50:56.659Z,3.93
2019-01-19T11:53:24.804Z,6.10
2019-01-19T11:55:52.979Z,8.07
2019-01-19T11:58:25.477Z,5.33
2019-01-19T12:00:53.448Z,6.90
2019-01-19T12:03:21.768Z,9.23
2019-01-19T12:05:49.940Z,8.53
2019-01-19T12:08:19.734Z,7.70
2019-01-19T12:10:47.894Z,6.30
2019-01-19T12:13:16.140Z,6.60
2019-01-19T12:15:44.290Z,7.57
2019-01-19T12:18:12.306Z,4.87
2019-01-19T12:20:45.480Z,6.83
2019-01-19T12:23:13.367Z,7.87
2019-01-19T12:25:41.301Z,4.03
2019-01-19T12:28:09.341Z,5.80
2019-01-19T12:30:37.234Z,5.40
2019-01-19T12:33:05.207Z,6.17
2019-01-19T12:35:33.157Z,6.67
2019-01-19T12:38:01.157Z,6.07
2019-01-19T12:40:29.323Z,7.63
2019-01-19T12:42:59.623Z,8.10
2019-01-19T12:45:38.863Z,7.03
2019-01-19T12:48:06.812Z,6.67
2019-01-19T12:50:34.822Z,5.57
2019-01-19T12:53:02.721Z,6.40
2019-01-19T12:55:30.780Z,5.60
2019-01-19T12:58:00.139Z,7.17
2019-01-19T13:00:28.501Z,8.80
2019-01-19T13:02:56.439Z,7.20
2019-01-19T13:05:30.697Z,9.93
2019-01-19T13:07:58.781Z,9.50
2019-01-19T13:10:49.182Z,6.70
2019-01-19T13:13:20.802Z,11.17
2019-01-19T13:16:29.132Z,7.00
2019-01-19T13:19:19.309Z,8.30
2019-01-19T13:22:18.916Z,6.33
2019-01-19T13:25:13.122Z,9.43
2019-01-19T13:28:18.102Z,9.90
2019-01-19T13:31:20.672Z,7.33
2019-01-19T13:34:25.751Z,6.97
2019-01-19T13:37:34.408Z,7.57
2019-01-19T13:40:16.952Z,6.60
2019-01-19T13:43:43.311Z,6.27
2019-01-19T13:46:27.503Z,7.57
2019-01-19T13:49:28.765Z,10.73
2019-01-19T13:52:07.933Z,7.07
2019-01-19T13:55:25.874Z,9.03
2019-01-19T13:58:24.475Z,7.27
2019-01-19T14:01:44.764Z,8.83
2019-01-19T14:04:33.156Z,9.17
2019-01-19T14:07:24.737Z,9.13
2019-01-19T14:10:40.246Z,10.30
2019-01-19T14:13:29.084Z,8.33
2019-01-19T14:16:40.291Z,6.90
2019-01-19T14:19:41.130Z,7.37
2019-01-19T14:22:40.260Z,7.63
2019-01-19T14:25:45.170Z,7.50
2019-01-19T14:28:57.656Z,7.20
2019-01-19T14:32:12.071Z,11.33
2019-01-19T14:35:18.666Z,7.87
2019-01-19T14:38:28.190Z,8.20
2019-01-19T14:41:46.824Z,8.00
2019-01-19T14:44:58.608Z,8.83
2019-01-19T14:48:07.453Z,10.63
2019-01-19T14:50:48.250Z,9.47
2019-01-19T14:53:44.112Z,9.93
2019-01-19T14:56:51.704Z,11.23
2019-01-19T15:00:01.552Z,8.93
2019-01-19T15:02:56.598Z,9.47
2019-01-19T15:05:40.183Z,9.93
2019-01-19T15:08:39.897Z,9.37
2019-01-19T15:11:44.842Z,9.70
2019-01-19T15:14:37.201Z,13.73
2019-01-19T15:17:59.072Z,9.33
2019-01-19T15:20:47.391Z,9.67
2019-01-19T15:24:00.237Z,11.40
2019-01-19T15:26:54.102Z,10.03
2019-01-19T15:29:47.032Z,10.20
2019-01-19T15:33:17.986Z,10.00
2019-01-19T15:36:12.570Z,10.13
2019-01-19T15:39:25.970Z,11.27
2019-01-19T15:42:24.403Z,10.07
2019-01-19T15:45:52.625Z,10.23
2019-01-19T15:48:54.240Z,10.97
2019-01-19T15:51:55.519Z,10.80
2019-01-19T15:54:44.192Z,12.33
2019-01-19T15:58:08.620Z,9.37
2019-01-19T16:00:50.489Z,9.50
2019-01-19T16:03:36.032Z,10.20
2019-01-19T16:06:43.947Z,9.47
2019-01-19T16:10:08.876Z,10.23
2019-01-19T16:13:14.170Z,9.97
2019-01-19T16:16:21.965Z,10.33
2019-01-19T16:19:27.722Z,8.97
2019-01-19T16:22:09.300Z,10.53
2019-01-19T16:25:19.415Z,10.33
2019-01-19T16:28:29.498Z,11.30
2019-01-19T16:31:27.804Z,11.10
2019-01-19T16:34:51.483Z,10.03
2019-01-19T16:37:39.741Z,12.37
2019-01-19T16:40:28.571Z,11.47
2019-01-19T16:43:21.066Z,10.40
2019-01-19T16:46:13.222Z,11.17
2019-01-19T16:49:12.820Z,11.27
2019-01-19T16:52:23.202Z,12.00
2019-01-19T16:55:16.830Z,12.43
2019-01-19T16:58:15.042Z,11.80
2019-01-19T17:01:23.394Z,11.47
2019-01-19T17:04:29.950Z,12.73
2019-01-19T17:07:15.504Z,11.07
2019-01-19T17:10:09.476Z,10.53
2019-01-19T17:13:15.387Z,11.33
2019-01-19T17:15:57.180Z,11.57
2019-01-19T17:18:54.336Z,11.97
2019-01-19T17:22:19.160Z,17.23
2019-01-19T17:25:26.792Z,61.17
2019-01-19T17:28:17.195Z,43.77
2019-01-19T17:31:39.435Z,39.80
2019-01-19T17:35:07.344Z,39.27
2019-01-19T17:38:08.876Z,42.40
2019-01-19T17:41:07.148Z,29.53
2019-01-19T17:44:04.880Z,23.63
2019-01-19T17:46:51.612Z,19.57
2019-01-19T17:49:49.357Z,18.43
2019-01-19T17:52:56.139Z,21.33
2019-01-19T17:55:47.213Z,17.57
2019-01-19T17:58:59.819Z,20.13
2019-01-19T18:01:53.298Z,21.57
2019-01-19T18:04:39.224Z,18.77
2019-01-19T18:07:23.543Z,17.90
2019-01-19T18:10:36.023Z,15.07
2019-01-19T18:13:28.502Z,21.90
2019-01-19T18:16:36.608Z,20.23
2019-01-19T18:19:41.171Z,27.47
2019-01-19T18:22:54.344Z,19.17
2019-01-19T18:25:30.627Z,16.27
2019-01-19T18:28:55.436Z,16.57
2019-01-19T18:31:54.052Z,20.23
2019-01-19T18:35:12.955Z,21.23
2019-01-19T18:38:17.602Z,18.40
2019-01-19T18:41:36.327Z,14.50
2019-01-19T18:45:00.475Z,12.47
2019-01-19T18:48:14.180Z,13.83
2019-01-19T18:51:22.722Z,14.43
2019-01-19T18:54:27.645Z,14.13
2019-01-19T18:57:52.070Z,13.37
2019-01-19T19:00:54.462Z,14.47
2019-01-19T19:04:12.936Z,13.37
2019-01-19T19:07:25.461Z,15.87
2019-01-19T19:10:06.296Z,15.73
2019-01-19T19:13:00.386Z,17.60
2019-01-19T19:16:07.501Z,16.17
2019-01-19T19:19:08.618Z,16.43
2019-01-19T19:22:21.098Z,15.53
2019-01-19T19:25:36.308Z,15.27
2019-01-19T19:28:38.477Z,18.20
2019-01-19T19:31:35.840Z,15.10
2019-01-19T19:34:35.961Z,15.97
2019-01-19T19:37:54.650Z,15.83
2019-01-19T19:40:44.880Z,15.07
2019-01-19T19:43:37.908Z,15.90
2019-01-19T19:46:47.525Z,19.60
2019-01-19T19:49:52.498Z,15.23
2019-01-19T19:52:27.770Z,16.77
2019-01-19T19:54:50.832Z,16.63
2019-01-19T19:57:19.379Z,14.93
2019-01-19T19:59:47.804Z,16.80
2019-01-19T20:02:16.069Z,16.90
2019-01-19T20:04:44.138Z,23.33
2019-01-19T20:07:12.453Z,25.77
2019-01-19T20:09:41.059Z,28.83
2019-01-19T20:12:09.557Z,38.20
2019-01-19T20:14:37.746Z,30.63
2019-01-19T20:17:07.413Z,22.80
2019-01-19T20:19:35.591Z,24.97
2019-01-19T20:22:04.031Z,23.17
2019-01-19T20:24:32.327Z,18.37
2019-01-19T20:27:00.587Z,20.23
2019-01-19T20:29:28.797Z,18.23
2019-01-19T20:31:56.976Z,17.20
2019-01-19T20:34:24.990Z,18.07
2019-01-19T20:36:56.257Z,19.20
2019-01-19T20:39:24.856Z,17.83
2019-01-19T20:41:55.677Z,29.07
2019-01-19T20:44:24.033Z,24.90
2019-01-19T20:46:52.290Z,22.47
2019-01-19T20:49:20.259Z,19.87
2019-01-19T20:51:48.576Z,20.30
2019-01-19T20:54:16.754Z,18.60
2019-01-19T20:56:45.937Z,19.63
2019-01-19T20:59:13.939Z,21.47
2019-01-19T21:01:45.232Z,15.47
2019-01-19T21:04:15.917Z,16.10
2019-01-19T21:06:43.839Z,16.27
2019-01-19T21:09:11.866Z,16.30
2019-01-19T21:11:40.198Z,17.03
2019-01-19T21:14:08.628Z,14.30
2019-01-19T21:16:36.639Z,13.73
2019-01-19T21:19:04.652Z,18.70
2019-01-19T21:21:33.240Z,14.10
2019-01-19T21:24:01.602Z,15.03
2019-01-19T21:26:31.621Z,14.57
2019-01-19T21:28:59.717Z,13.50
2019-01-19T21:31:28.042Z,15.40
2019-01-19T21:34:00.040Z,14.70
2019-01-19T21:36:31.205Z,13.23
2019-01-19T21:39:03.718Z,13.20
2019-01-19T21:41:33.254Z,13.23
2019-01-19T21:44:01.906Z,13.23
2019-01-19T21:46:30.266Z,15.20
2019-01-19T21:48:59.609Z,13.83
2019-01-19T21:51:27.721Z,12.87
2019-01-19T21:53:56.041Z,13.43
2019-01-19T21:56:24.056Z,15.73
2019-01-19T21:58:52.348Z,13.47
2019-01-19T22:01:20.290Z,12.70
2019-01-19T22:03:48.314Z,13.73
2019-01-19T22:06:16.250Z,12.90
2019-01-19T22:08:44.236Z,15.00
2019-01-19T22:11:12.386Z,14.20
2019-01-19T22:13:40.619Z,11.80
2019-01-19T22:16:08.891Z,12.27
2019-01-19T22:18:37.010Z,13.50
2019-01-19T22:21:05.441Z,12.90
2019-01-19T22:23:33.820Z,12.37
2019-01-19T22:26:02.048Z,14.03
2019-01-19T22:28:30.236Z,12.60
2019-01-19T22:30:58.354Z,13.13
2019-01-19T22:33:26.748Z,12.30
2019-01-19T22:35:55.409Z,13.80
2019-01-19T22:38:23.670Z,13.97
2019-01-19T22:40:53.743Z,13.07
2019-01-19T22:43:29.183Z,13.03
2019-01-19T22:45:57.564Z,13.10
2019-01-19T22:48:27.031Z,14.27
2019-01-19T22:50:55.024Z,13.27
2019-01-19T22:53:23.140Z,13.10
2019-01-19T22:55:51.300Z,13.07
2019-01-19T22:58:19.476Z,13.57
2019-01-19T23:01:18.933Z,13.93
2019-01-19T23:03:47.251Z,13.57
2019-01-19T23:06:15.534Z,14.97
2019-01-19T23:08:43.476Z,13.93
2019-01-19T23:11:11.620Z,13.50
2019-01-19T23:13:39.684Z,13.57
2019-01-19T23:16:07.876Z,15.90
2019-01-19T23:18:35.999Z,14.50
2019-01-19T23:21:04.198Z,14.30
2019-01-19T23:23:32.080Z,13.17
2019-01-19T23:26:01.927Z,14.77
2019-01-19T23:28:30.427Z,13.67
2019-01-19T23:30:58.757Z,13.47
2019-01-19T23:33:27.034Z,12.80
2019-01-19T23:35:55.141Z,13.13
2019-01-19T23:38:23.487Z,13.27
2019-01-19T23:40:51.436Z,11.53
2019-01-19T23:43:19.825Z,11.60
2019-01-19T23:45:48.122Z,12.90
2019-01-19T23:48:16.162Z,13.60
2019-01-19T23:50:44.245Z,14.17
2019-01-19T23:53:12.324Z,14.33
2019-01-19T23:55:42.679Z,14.43
2019-01-19T23:58:10.848Z,13.90
